sensor_id;sensor_type;location;lat;lon;timestamp;P1;durP1;ratioP1;P2;durP2;ratioP2
7173;SDS011;3628;48.654;8.932;2023-06-05T00:01:17;1.87;;;1.20;;
7173;SDS011;3628;48.654;8.932;2023-06-05T00:03:42;2.73;;;1.40;;
7173;SDS011;3628;48.654;8.932;2023-06-05T00:06:08;2.33;;;1.60;;
7173;SDS011;3628;48.654;8.932;2023-06-05T00:08:34;2.03;;;1.37;;
7173;SDS011;3628;48.654;8.932;2023-06-05T00:11:00;2.67;;;1.23;;
7173;SDS011;3628;48.654;8.932;2023-06-05T00:13:26;1.90;;;1.37;;
7173;SDS011;3628;48.654;8.932;2023-06-05T00:15:51;2.43;;;1.40;;
7173;SDS011;3628;48.654;8.932;2023-06-05T00:18:17;2.63;;;1.50;;
7173;SDS011;3628;48.654;8.932;2023-06-05T00:20:43;1.80;;;1.30;;
7173;SDS011;3628;48.654;8.932;2023-06-05T00:23:09;3.37;;;1.40;;
7173;SDS011;3628;48.654;8.932;2023-06-05T00:25:37;2.63;;;1.10;;
7173;SDS011;3628;48.654;8.932;2023-06-05T00:28:03;1.30;;;1.20;;
7173;SDS011;3628;48.654;8.932;2023-06-05T00:30:28;5.77;;;1.43;;
7173;SDS011;3628;48.654;8.932;2023-06-05T00:32:55;1.27;;;1.10;;
7173;SDS011;3628;48.654;8.932;2023-06-05T00:35:21;1.73;;;1.30;;
7173;SDS011;3628;48.654;8.932;2023-06-05T00:37:47;2.60;;;1.47;;
7173;SDS011;3628;48.654;8.932;2023-06-05T00:40:12;2.13;;;1.30;;
7173;SDS011;3628;48.654;8.932;2023-06-05T00:42:38;1.63;;;1.33;;
7173;SDS011;3628;48.654;8.932;2023-06-05T00:45:04;2.07;;;1.10;;
7173;SDS011;3628;48.654;8.932;2023-06-05T00:47:30;2.77;;;1.37;;
7173;SDS011;3628;48.654;8.932;2023-06-05T00:49:57;1.33;;;1.10;;
7173;SDS011;3628;48.654;8.932;2023-06-05T00:52:23;1.60;;;1.50;;
7173;SDS011;3628;48.654;8.932;2023-06-05T00:54:48;4.17;;;1.33;;
7173;SDS011;3628;48.654;8.932;2023-06-05T00:57:14;2.50;;;1.27;;
7173;SDS011;3628;48.654;8.932;2023-06-05T00:59:40;1.43;;;1.30;;
7173;SDS011;3628;48.654;8.932;2023-06-05T01:02:09;2.37;;;1.40;;
7173;SDS011;3628;48.654;8.932;2023-06-05T01:04:40;1.90;;;1.30;;
7173;SDS011;3628;48.654;8.932;2023-06-05T01:07:08;2.00;;;1.50;;
7173;SDS011;3628;48.654;8.932;2023-06-05T01:09:35;1.33;;;1.23;;
7173;SDS011;3628;48.654;8.932;2023-06-05T01:14:42;1.37;;;1.27;;
7173;SDS011;3628;48.654;8.932;2023-06-05T01:17:13;1.60;;;1.27;;
7173;SDS011;3628;48.654;8.932;2023-06-05T01:19:38;2.53;;;1.30;;
7173;SDS011;3628;48.654;8.932;2023-06-05T01:22:05;5.40;;;1.60;;
7173;SDS011;3628;48.654;8.932;2023-06-05T01:24:31;3.20;;;1.53;;
7173;SDS011;3628;48.654;8.932;2023-06-05T01:32:35;1.40;;;1.30;;
7173;SDS011;3628;48.654;8.932;2023-06-05T01:35:12;1.50;;;1.10;;
7173;SDS011;3628;48.654;8.932;2023-06-05T01:37:43;2.47;;;1.43;;
7173;SDS011;3628;48.654;8.932;2023-06-05T01:40:14;2.70;;;1.60;;
7173;SDS011;3628;48.654;8.932;2023-06-05T01:42:44;1.87;;;1.40;;
7173;SDS011;3628;48.654;8.932;2023-06-05T01:45:12;2.67;;;1.20;;
7173;SDS011;3628;48.654;8.932;2023-06-05T01:47:39;3.33;;;1.30;;
7173;SDS011;3628;48.654;8.932;2023-06-05T01:50:06;3.67;;;1.40;;
7173;SDS011;3628;48.654;8.932;2023-06-05T01:52:33;2.00;;;1.43;;
7173;SDS011;3628;48.654;8.932;2023-06-05T01:55:05;1.30;;;1.20;;
7173;SDS011;3628;48.654;8.932;2023-06-05T01:57:31;2.47;;;1.80;;
7173;SDS011;3628;48.654;8.932;2023-06-05T01:59:59;1.97;;;1.30;;
7173;SDS011;3628;48.654;8.932;2023-06-05T02:02:26;1.77;;;1.53;;
7173;SDS011;3628;48.654;8.932;2023-06-05T02:04:53;3.07;;;1.30;;
7173;SDS011;3628;48.654;8.932;2023-06-05T02:07:19;2.00;;;1.50;;
7173;SDS011;3628;48.654;8.932;2023-06-05T02:09:46;1.10;;;1.00;;
7173;SDS011;3628;48.654;8.932;2023-06-05T02:12:12;1.00;;;0.97;;
7173;SDS011;3628;48.654;8.932;2023-06-05T02:14:40;2.60;;;1.40;;
7173;SDS011;3628;48.654;8.932;2023-06-05T02:17:09;2.07;;;1.10;;
7173;SDS011;3628;48.654;8.932;2023-06-05T02:19:38;1.27;;;1.17;;
7173;SDS011;3628;48.654;8.932;2023-06-05T02:22:04;1.40;;;0.90;;
7173;SDS011;3628;48.654;8.932;2023-06-05T02:24:30;1.27;;;1.17;;
7173;SDS011;3628;48.654;8.932;2023-06-05T02:26:55;1.10;;;1.00;;
7173;SDS011;3628;48.654;8.932;2023-06-05T02:29:22;1.30;;;1.00;;
7173;SDS011;3628;48.654;8.932;2023-06-05T02:31:48;1.10;;;1.00;;
7173;SDS011;3628;48.654;8.932;2023-06-05T02:34:14;1.37;;;1.10;;
7173;SDS011;3628;48.654;8.932;2023-06-05T02:36:41;1.07;;;0.90;;
7173;SDS011;3628;48.654;8.932;2023-06-05T02:39:10;1.50;;;1.30;;
7173;SDS011;3628;48.654;8.932;2023-06-05T02:41:36;1.43;;;1.10;;
7173;SDS011;3628;48.654;8.932;2023-06-05T02:44:02;2.20;;;1.23;;
7173;SDS011;3628;48.654;8.932;2023-06-05T02:46:28;1.93;;;1.20;;
7173;SDS011;3628;48.654;8.932;2023-06-05T02:48:53;2.57;;;1.50;;
7173;SDS011;3628;48.654;8.932;2023-06-05T02:51:19;4.73;;;2.43;;
7173;SDS011;3628;48.654;8.932;2023-06-05T02:53:45;3.93;;;1.33;;
7173;SDS011;3628;48.654;8.932;2023-06-05T02:56:10;1.50;;;1.20;;
7173;SDS011;3628;48.654;8.932;2023-06-05T02:58:38;0.83;;;0.83;;
7173;SDS011;3628;48.654;8.932;2023-06-05T03:01:05;2.00;;;1.30;;
7173;SDS011;3628;48.654;8.932;2023-06-05T03:03:33;1.20;;;1.10;;
7173;SDS011;3628;48.654;8.932;2023-06-05T03:05:59;2.57;;;1.40;;
7173;SDS011;3628;48.654;8.932;2023-06-05T03:08:35;1.60;;;1.27;;
7173;SDS011;3628;48.654;8.932;2023-06-05T03:11:01;2.37;;;1.20;;
7173;SDS011;3628;48.654;8.932;2023-06-05T03:13:28;1.27;;;1.13;;
7173;SDS011;3628;48.654;8.932;2023-06-05T03:15:57;1.20;;;1.10;;
7173;SDS011;3628;48.654;8.932;2023-06-05T03:18:26;1.20;;;1.10;;
7173;SDS011;3628;48.654;8.932;2023-06-05T03:20:52;4.50;;;1.10;;
7173;SDS011;3628;48.654;8.932;2023-06-05T03:23:24;2.10;;;1.20;;
7173;SDS011;3628;48.654;8.932;2023-06-05T03:25:51;2.67;;;1.20;;
7173;SDS011;3628;48.654;8.932;2023-06-05T03:28:17;1.67;;;1.10;;
7173;SDS011;3628;48.654;8.932;2023-06-05T03:30:43;4.87;;;1.30;;
7173;SDS011;3628;48.654;8.932;2023-06-05T03:33:10;2.67;;;1.00;;
7173;SDS011;3628;48.654;8.932;2023-06-05T03:35:36;1.80;;;1.20;;
7173;SDS011;3628;48.654;8.932;2023-06-05T03:38:02;2.67;;;1.60;;
7173;SDS011;3628;48.654;8.932;2023-06-05T03:40:28;2.33;;;1.40;;
7173;SDS011;3628;48.654;8.932;2023-06-05T03:42:53;2.57;;;1.50;;
7173;SDS011;3628;48.654;8.932;2023-06-05T03:45:19;2.67;;;1.20;;
7173;SDS011;3628;48.654;8.932;2023-06-05T03:47:45;2.40;;;1.47;;
7173;SDS011;3628;48.654;8.932;2023-06-05T03:50:13;1.70;;;1.30;;
7173;SDS011;3628;48.654;8.932;2023-06-05T03:52:40;1.13;;;1.03;;
7173;SDS011;3628;48.654;8.932;2023-06-05T03:55:06;2.53;;;1.30;;
7173;SDS011;3628;48.654;8.932;2023-06-05T03:57:33;2.87;;;1.30;;
7173;SDS011;3628;48.654;8.932;2023-06-05T03:59:59;5.50;;;1.40;;
7173;SDS011;3628;48.654;8.932;2023-06-05T04:02:25;1.63;;;1.17;;
7173;SDS011;3628;48.654;8.932;2023-06-05T04:04:50;3.23;;;1.50;;
7173;SDS011;3628;48.654;8.932;2023-06-05T04:07:16;1.63;;;1.20;;
7173;SDS011;3628;48.654;8.932;2023-06-05T04:09:42;3.80;;;1.20;;
7173;SDS011;3628;48.654;8.932;2023-06-05T04:12:07;1.70;;;1.20;;
7173;SDS011;3628;48.654;8.932;2023-06-05T04:14:35;4.57;;;1.03;;
7173;SDS011;3628;48.654;8.932;2023-06-05T04:17:01;2.40;;;1.10;;
7173;SDS011;3628;48.654;8.932;2023-06-05T04:19:27;1.73;;;1.30;;
7173;SDS011;3628;48.654;8.932;2023-06-05T04:21:54;2.77;;;1.27;;
7173;SDS011;3628;48.654;8.932;2023-06-05T04:24:19;4.27;;;1.70;;
7173;SDS011;3628;48.654;8.932;2023-06-05T04:26:45;4.87;;;1.30;;
7173;SDS011;3628;48.654;8.932;2023-06-05T04:29:12;5.27;;;1.47;;
7173;SDS011;3628;48.654;8.932;2023-06-05T04:31:40;4.13;;;1.30;;
7173;SDS011;3628;48.654;8.932;2023-06-05T04:34:07;2.63;;;1.30;;
7173;SDS011;3628;48.654;8.932;2023-06-05T04:36:33;1.70;;;1.27;;
7173;SDS011;3628;48.654;8.932;2023-06-05T04:39:00;1.93;;;1.43;;
7173;SDS011;3628;48.654;8.932;2023-06-05T04:41:27;1.87;;;1.50;;
7173;SDS011;3628;48.654;8.932;2023-06-05T04:43:54;1.90;;;1.50;;
7173;SDS011;3628;48.654;8.932;2023-06-05T04:46:22;2.77;;;1.40;;
7173;SDS011;3628;48.654;8.932;2023-06-05T04:48:48;2.10;;;1.30;;
7173;SDS011;3628;48.654;8.932;2023-06-05T04:51:14;4.40;;;1.60;;
7173;SDS011;3628;48.654;8.932;2023-06-05T04:53:39;2.43;;;1.40;;
7173;SDS011;3628;48.654;8.932;2023-06-05T04:56:06;3.07;;;1.63;;
7173;SDS011;3628;48.654;8.932;2023-06-05T04:58:32;4.23;;;1.40;;
7173;SDS011;3628;48.654;8.932;2023-06-05T05:00:58;4.57;;;1.30;;
7173;SDS011;3628;48.654;8.932;2023-06-05T05:03:30;1.47;;;1.30;;
7173;SDS011;3628;48.654;8.932;2023-06-05T05:05:56;2.83;;;1.47;;
7173;SDS011;3628;48.654;8.932;2023-06-05T05:08:21;4.90;;;1.60;;
7173;SDS011;3628;48.654;8.932;2023-06-05T05:10:47;2.80;;;1.73;;
7173;SDS011;3628;48.654;8.932;2023-06-05T05:13:13;4.13;;;1.80;;
7173;SDS011;3628;48.654;8.932;2023-06-05T05:15:38;4.57;;;1.60;;
7173;SDS011;3628;48.654;8.932;2023-06-05T05:18:04;6.47;;;1.87;;
7173;SDS011;3628;48.654;8.932;2023-06-05T05:20:30;2.63;;;1.63;;
7173;SDS011;3628;48.654;8.932;2023-06-05T05:22:57;2.07;;;1.63;;
7173;SDS011;3628;48.654;8.932;2023-06-05T05:25:24;5.10;;;1.83;;
7173;SDS011;3628;48.654;8.932;2023-06-05T05:27:50;3.80;;;1.77;;
7173;SDS011;3628;48.654;8.932;2023-06-05T05:30:16;4.90;;;1.60;;
7173;SDS011;3628;48.654;8.932;2023-06-05T05:32:41;4.03;;;1.60;;
7173;SDS011;3628;48.654;8.932;2023-06-05T05:35:07;7.00;;;1.83;;
7173;SDS011;3628;48.654;8.932;2023-06-05T05:37:33;2.50;;;1.60;;
7173;SDS011;3628;48.654;8.932;2023-06-05T05:39:58;2.73;;;1.70;;
7173;SDS011;3628;48.654;8.932;2023-06-05T05:42:24;3.03;;;1.87;;
7173;SDS011;3628;48.654;8.932;2023-06-05T05:44:50;3.40;;;1.70;;
7173;SDS011;3628;48.654;8.932;2023-06-05T05:47:15;4.20;;;1.70;;
7173;SDS011;3628;48.654;8.932;2023-06-05T05:49:41;6.80;;;2.40;;
7173;SDS011;3628;48.654;8.932;2023-06-05T05:52:06;6.43;;;1.80;;
7173;SDS011;3628;48.654;8.932;2023-06-05T05:54:32;5.47;;;2.03;;
7173;SDS011;3628;48.654;8.932;2023-06-05T05:56:57;6.67;;;1.80;;
7173;SDS011;3628;48.654;8.932;2023-06-05T05:59:23;3.40;;;2.47;;
7173;SDS011;3628;48.654;8.932;2023-06-05T06:01:48;8.80;;;2.03;;
7173;SDS011;3628;48.654;8.932;2023-06-05T06:04:18;11.70;;;2.85;;
7173;SDS011;3628;48.654;8.932;2023-06-05T06:06:43;7.47;;;2.10;;
7173;SDS011;3628;48.654;8.932;2023-06-05T06:09:13;8.07;;;2.53;;
7173;SDS011;3628;48.654;8.932;2023-06-05T06:11:40;5.68;;;2.03;;
7173;SDS011;3628;48.654;8.932;2023-06-05T06:14:07;9.18;;;2.08;;
7173;SDS011;3628;48.654;8.932;2023-06-05T06:16:35;6.97;;;2.08;;
7173;SDS011;3628;48.654;8.932;2023-06-05T06:19:01;16.55;;;1.98;;
7173;SDS011;3628;48.654;8.932;2023-06-05T06:21:27;11.02;;;2.13;;
7173;SDS011;3628;48.654;8.932;2023-06-05T06:23:52;10.32;;;2.30;;
7173;SDS011;3628;48.654;8.932;2023-06-05T06:26:19;8.52;;;2.17;;
7173;SDS011;3628;48.654;8.932;2023-06-05T06:28:45;17.17;;;2.45;;
7173;SDS011;3628;48.654;8.932;2023-06-05T06:31:10;7.65;;;2.08;;
7173;SDS011;3628;48.654;8.932;2023-06-05T06:33:36;4.07;;;2.10;;
7173;SDS011;3628;48.654;8.932;2023-06-05T06:36:03;7.53;;;2.10;;
7173;SDS011;3628;48.654;8.932;2023-06-05T06:38:28;6.88;;;2.08;;
7173;SDS011;3628;48.654;8.932;2023-06-05T06:40:57;6.18;;;1.63;;
7173;SDS011;3628;48.654;8.932;2023-06-05T06:43:23;3.60;;;1.98;;
7173;SDS011;3628;48.654;8.932;2023-06-05T06:45:49;5.50;;;2.13;;
7173;SDS011;3628;48.654;8.932;2023-06-05T06:48:15;2.15;;;1.60;;
7173;SDS011;3628;48.654;8.932;2023-06-05T06:50:42;3.30;;;1.50;;
7173;SDS011;3628;48.654;8.932;2023-06-05T06:53:07;3.97;;;1.50;;
7173;SDS011;3628;48.654;8.932;2023-06-05T06:55:33;2.88;;;1.70;;
7173;SDS011;3628;48.654;8.932;2023-06-05T06:57:59;2.45;;;1.67;;
7173;SDS011;3628;48.654;8.932;2023-06-05T07:00:25;3.95;;;1.60;;
7173;SDS011;3628;48.654;8.932;2023-06-05T07:02:50;3.83;;;1.80;;
7173;SDS011;3628;48.654;8.932;2023-06-05T07:05:16;2.45;;;1.73;;
7173;SDS011;3628;48.654;8.932;2023-06-05T07:07:44;2.08;;;1.60;;
7173;SDS011;3628;48.654;8.932;2023-06-05T07:10:10;3.83;;;1.60;;
7173;SDS011;3628;48.654;8.932;2023-06-05T07:12:36;2.80;;;1.50;;
7173;SDS011;3628;48.654;8.932;2023-06-05T07:15:01;3.35;;;1.88;;
7173;SDS011;3628;48.654;8.932;2023-06-05T07:17:27;3.55;;;1.70;;
7173;SDS011;3628;48.654;8.932;2023-06-05T07:19:55;3.20;;;1.67;;
7173;SDS011;3628;48.654;8.932;2023-06-05T07:22:21;3.78;;;1.73;;
7173;SDS011;3628;48.654;8.932;2023-06-05T07:24:46;4.13;;;1.58;;
7173;SDS011;3628;48.654;8.932;2023-06-05T07:27:13;4.40;;;1.67;;
7173;SDS011;3628;48.654;8.932;2023-06-05T07:29:40;2.60;;;1.80;;
7173;SDS011;3628;48.654;8.932;2023-06-05T07:32:05;3.08;;;1.50;;
7173;SDS011;3628;48.654;8.932;2023-06-05T07:34:32;3.53;;;2.22;;
7173;SDS011;3628;48.654;8.932;2023-06-05T07:36:58;6.32;;;1.80;;
7173;SDS011;3628;48.654;8.932;2023-06-05T07:39:24;2.95;;;1.90;;
7173;SDS011;3628;48.654;8.932;2023-06-05T07:41:50;2.88;;;1.85;;
7173;SDS011;3628;48.654;8.932;2023-06-05T07:44:16;2.75;;;1.63;;
7173;SDS011;3628;48.654;8.932;2023-06-05T07:46:43;2.88;;;1.50;;
7173;SDS011;3628;48.654;8.932;2023-06-05T07:49:11;4.18;;;1.90;;
7173;SDS011;3628;48.654;8.932;2023-06-05T07:51:37;2.78;;;1.70;;
7173;SDS011;3628;48.654;8.932;2023-06-05T07:54:06;5.25;;;2.05;;
7173;SDS011;3628;48.654;8.932;2023-06-05T07:56:34;2.65;;;1.90;;
7173;SDS011;3628;48.654;8.932;2023-06-05T07:59:00;3.30;;;1.88;;
7173;SDS011;3628;48.654;8.932;2023-06-05T08:01:28;2.72;;;2.13;;
7173;SDS011;3628;48.654;8.932;2023-06-05T08:03:55;2.17;;;1.58;;
7173;SDS011;3628;48.654;8.932;2023-06-05T08:06:20;3.25;;;1.60;;
7173;SDS011;3628;48.654;8.932;2023-06-05T08:08:49;2.88;;;1.90;;
7173;SDS011;3628;48.654;8.932;2023-06-05T08:11:14;2.85;;;1.90;;
7173;SDS011;3628;48.654;8.932;2023-06-05T08:13:40;3.25;;;2.13;;
7173;SDS011;3628;48.654;8.932;2023-06-05T08:16:06;4.40;;;1.92;;
7173;SDS011;3628;48.654;8.932;2023-06-05T08:18:31;4.53;;;1.90;;
7173;SDS011;3628;48.654;8.932;2023-06-05T08:20:57;2.53;;;1.95;;
7173;SDS011;3628;48.654;8.932;2023-06-05T08:23:23;3.72;;;1.90;;
7173;SDS011;3628;48.654;8.932;2023-06-05T08:25:48;4.95;;;2.70;;
7173;SDS011;3628;48.654;8.932;2023-06-05T08:28:14;3.53;;;2.00;;
7173;SDS011;3628;48.654;8.932;2023-06-05T08:30:41;3.75;;;2.20;;
7173;SDS011;3628;48.654;8.932;2023-06-05T08:33:07;5.68;;;2.10;;
7173;SDS011;3628;48.654;8.932;2023-06-05T08:35:32;5.63;;;2.00;;
7173;SDS011;3628;48.654;8.932;2023-06-05T08:37:58;2.75;;;1.77;;
7173;SDS011;3628;48.654;8.932;2023-06-05T08:40:25;2.63;;;1.80;;
7173;SDS011;3628;48.654;8.932;2023-06-05T08:42:54;3.58;;;2.17;;
7173;SDS011;3628;48.654;8.932;2023-06-05T08:45:19;2.95;;;2.10;;
7173;SDS011;3628;48.654;8.932;2023-06-05T08:47:45;2.78;;;1.95;;
7173;SDS011;3628;48.654;8.932;2023-06-05T08:50:15;4.60;;;2.45;;
7173;SDS011;3628;48.654;8.932;2023-06-05T08:52:42;4.30;;;2.55;;
7173;SDS011;3628;48.654;8.932;2023-06-05T08:55:08;3.15;;;2.00;;
7173;SDS011;3628;48.654;8.932;2023-06-05T08:57:35;13.90;;;2.65;;
7173;SDS011;3628;48.654;8.932;2023-06-05T09:00:05;5.47;;;2.50;;
7173;SDS011;3628;48.654;8.932;2023-06-05T09:02:38;7.70;;;2.70;;
7173;SDS011;3628;48.654;8.932;2023-06-05T09:05:11;3.25;;;2.42;;
7173;SDS011;3628;48.654;8.932;2023-06-05T09:07:37;3.40;;;2.70;;
7173;SDS011;3628;48.654;8.932;2023-06-05T09:10:04;4.43;;;2.58;;
7173;SDS011;3628;48.654;8.932;2023-06-05T09:12:30;3.60;;;2.30;;
7173;SDS011;3628;48.654;8.932;2023-06-05T09:14:55;2.90;;;2.60;;
7173;SDS011;3628;48.654;8.932;2023-06-05T09:17:21;3.75;;;2.63;;
7173;SDS011;3628;48.654;8.932;2023-06-05T09:19:47;2.85;;;2.65;;
7173;SDS011;3628;48.654;8.932;2023-06-05T09:22:13;3.30;;;2.90;;
7173;SDS011;3628;48.654;8.932;2023-06-05T09:24:44;3.17;;;2.78;;
7173;SDS011;3628;48.654;8.932;2023-06-05T09:27:21;4.72;;;2.88;;
7173;SDS011;3628;48.654;8.932;2023-06-05T09:29:47;4.25;;;2.53;;
7173;SDS011;3628;48.654;8.932;2023-06-05T09:32:16;4.68;;;2.50;;
7173;SDS011;3628;48.654;8.932;2023-06-05T09:34:54;2.88;;;2.40;;
7173;SDS011;3628;48.654;8.932;2023-06-05T09:37:38;6.32;;;3.80;;
7173;SDS011;3628;48.654;8.932;2023-06-05T09:40:04;4.65;;;2.80;;
7173;SDS011;3628;48.654;8.932;2023-06-05T09:42:30;3.60;;;2.53;;
7173;SDS011;3628;48.654;8.932;2023-06-05T09:44:58;3.63;;;3.22;;
7173;SDS011;3628;48.654;8.932;2023-06-05T09:47:24;2.40;;;2.20;;
7173;SDS011;3628;48.654;8.932;2023-06-05T09:49:50;4.15;;;3.15;;
7173;SDS011;3628;48.654;8.932;2023-06-05T09:52:16;3.53;;;2.83;;
7173;SDS011;3628;48.654;8.932;2023-06-05T09:54:43;3.00;;;2.63;;
7173;SDS011;3628;48.654;8.932;2023-06-05T09:57:10;3.08;;;2.55;;
7173;SDS011;3628;48.654;8.932;2023-06-05T09:59:57;5.88;;;2.97;;
7173;SDS011;3628;48.654;8.932;2023-06-05T10:02:24;4.75;;;3.00;;
7173;SDS011;3628;48.654;8.932;2023-06-05T10:04:56;3.00;;;2.20;;
7173;SDS011;3628;48.654;8.932;2023-06-05T10:07:28;3.00;;;2.70;;
7173;SDS011;3628;48.654;8.932;2023-06-05T10:09:55;3.50;;;2.58;;
7173;SDS011;3628;48.654;8.932;2023-06-05T10:12:23;4.32;;;2.80;;
7173;SDS011;3628;48.654;8.932;2023-06-05T10:14:52;3.17;;;2.60;;
7173;SDS011;3628;48.654;8.932;2023-06-05T10:17:22;2.53;;;2.28;;
7173;SDS011;3628;48.654;8.932;2023-06-05T10:19:48;3.22;;;2.35;;
7173;SDS011;3628;48.654;8.932;2023-06-05T10:22:16;2.67;;;2.47;;
7173;SDS011;3628;48.654;8.932;2023-06-05T10:24:44;2.92;;;2.47;;
7173;SDS011;3628;48.654;8.932;2023-06-05T10:33:21;6.57;;;2.55;;
7173;SDS011;3628;48.654;8.932;2023-06-05T10:38:26;3.28;;;2.45;;
7173;SDS011;3628;48.654;8.932;2023-06-05T10:40:55;3.42;;;2.60;;
7173;SDS011;3628;48.654;8.932;2023-06-05T10:43:26;3.38;;;2.80;;
7173;SDS011;3628;48.654;8.932;2023-06-05T10:45:56;3.47;;;2.70;;
7173;SDS011;3628;48.654;8.932;2023-06-05T10:49:05;3.95;;;2.40;;
7173;SDS011;3628;48.654;8.932;2023-06-05T10:54:08;3.28;;;2.30;;
7173;SDS011;3628;48.654;8.932;2023-06-05T10:59:25;5.18;;;2.70;;
7173;SDS011;3628;48.654;8.932;2023-06-05T11:05:19;2.65;;;2.45;;
7173;SDS011;3628;48.654;8.932;2023-06-05T11:15:14;2.95;;;2.40;;
7173;SDS011;3628;48.654;8.932;2023-06-05T11:20:56;3.55;;;2.60;;
7173;SDS011;3628;48.654;8.932;2023-06-05T11:23:23;4.13;;;2.58;;
7173;SDS011;3628;48.654;8.932;2023-06-05T11:25:53;4.18;;;2.50;;
7173;SDS011;3628;48.654;8.932;2023-06-05T11:28:38;3.22;;;2.55;;
7173;SDS011;3628;48.654;8.932;2023-06-05T11:31:05;3.30;;;2.72;;
7173;SDS011;3628;48.654;8.932;2023-06-05T11:33:31;3.67;;;2.40;;
7173;SDS011;3628;48.654;8.932;2023-06-05T11:35:59;3.85;;;2.70;;
7173;SDS011;3628;48.654;8.932;2023-06-05T11:38:26;4.85;;;2.80;;
7173;SDS011;3628;48.654;8.932;2023-06-05T11:40:53;4.72;;;2.40;;
7173;SDS011;3628;48.654;8.932;2023-06-05T11:43:20;3.08;;;2.40;;
7173;SDS011;3628;48.654;8.932;2023-06-05T11:45:50;5.75;;;2.35;;
7173;SDS011;3628;48.654;8.932;2023-06-05T11:48:15;3.38;;;2.53;;
7173;SDS011;3628;48.654;8.932;2023-06-05T11:53:19;3.28;;;2.58;;
7173;SDS011;3628;48.654;8.932;2023-06-05T11:55:45;3.45;;;2.33;;
7173;SDS011;3628;48.654;8.932;2023-06-05T11:58:20;3.78;;;2.42;;
7173;SDS011;3628;48.654;8.932;2023-06-05T12:00:46;2.40;;;2.20;;
7173;SDS011;3628;48.654;8.932;2023-06-05T12:03:16;3.60;;;2.40;;
7173;SDS011;3628;48.654;8.932;2023-06-05T12:05:47;2.95;;;2.30;;
7173;SDS011;3628;48.654;8.932;2023-06-05T12:08:27;2.70;;;2.33;;
7173;SDS011;3628;48.654;8.932;2023-06-05T12:10:55;3.85;;;2.40;;
7173;SDS011;3628;48.654;8.932;2023-06-05T12:16:15;2.70;;;2.13;;
7173;SDS011;3628;48.654;8.932;2023-06-05T12:18:42;2.58;;;2.00;;
7173;SDS011;3628;48.654;8.932;2023-06-05T12:21:18;3.20;;;2.40;;
7173;SDS011;3628;48.654;8.932;2023-06-05T12:23:45;3.00;;;2.50;;
7173;SDS011;3628;48.654;8.932;2023-06-05T12:26:10;2.63;;;2.03;;
7173;SDS011;3628;48.654;8.932;2023-06-05T12:28:36;2.42;;;2.20;;
7173;SDS011;3628;48.654;8.932;2023-06-05T12:31:02;2.83;;;2.15;;
7173;SDS011;3628;48.654;8.932;2023-06-05T12:33:28;2.88;;;1.92;;
7173;SDS011;3628;48.654;8.932;2023-06-05T12:36:03;2.72;;;2.42;;
7173;SDS011;3628;48.654;8.932;2023-06-05T12:38:38;2.70;;;2.22;;
7173;SDS011;3628;48.654;8.932;2023-06-05T12:41:05;3.60;;;2.00;;
7173;SDS011;3628;48.654;8.932;2023-06-05T12:43:32;2.17;;;1.90;;
7173;SDS011;3628;48.654;8.932;2023-06-05T12:45:58;2.35;;;1.83;;
7173;SDS011;3628;48.654;8.932;2023-06-05T12:48:24;2.97;;;2.25;;
7173;SDS011;3628;48.654;8.932;2023-06-05T12:50:50;2.38;;;2.17;;
7173;SDS011;3628;48.654;8.932;2023-06-05T12:53:16;2.35;;;2.10;;
7173;SDS011;3628;48.654;8.932;2023-06-05T12:55:43;4.30;;;2.30;;
7173;SDS011;3628;48.654;8.932;2023-06-05T12:58:08;2.15;;;2.03;;
7173;SDS011;3628;48.654;8.932;2023-06-05T13:00:34;2.20;;;2.00;;
7173;SDS011;3628;48.654;8.932;2023-06-05T13:03:00;4.20;;;2.15;;
7173;SDS011;3628;48.654;8.932;2023-06-05T13:05:27;3.25;;;2.08;;
7173;SDS011;3628;48.654;8.932;2023-06-05T13:07:53;2.47;;;2.03;;
7173;SDS011;3628;48.654;8.932;2023-06-05T13:10:20;3.30;;;2.00;;
7173;SDS011;3628;48.654;8.932;2023-06-05T13:12:45;3.13;;;1.90;;
7173;SDS011;3628;48.654;8.932;2023-06-05T13:15:11;3.65;;;2.30;;
7173;SDS011;3628;48.654;8.932;2023-06-05T13:17:37;3.85;;;1.88;;
7173;SDS011;3628;48.654;8.932;2023-06-05T13:20:03;4.53;;;2.33;;
7173;SDS011;3628;48.654;8.932;2023-06-05T13:22:39;2.65;;;2.38;;
7173;SDS011;3628;48.654;8.932;2023-06-05T13:25:06;2.28;;;2.08;;
7173;SDS011;3628;48.654;8.932;2023-06-05T13:27:33;2.55;;;2.08;;
7173;SDS011;3628;48.654;8.932;2023-06-05T13:29:59;2.28;;;2.00;;
7173;SDS011;3628;48.654;8.932;2023-06-05T13:32:24;6.60;;;2.03;;
7173;SDS011;3628;48.654;8.932;2023-06-05T13:34:50;4.82;;;1.90;;
7173;SDS011;3628;48.654;8.932;2023-06-05T13:37:16;3.05;;;1.95;;
7173;SDS011;3628;48.654;8.932;2023-06-05T13:39:41;2.85;;;2.00;;
7173;SDS011;3628;48.654;8.932;2023-06-05T13:42:07;3.05;;;2.00;;
7173;SDS011;3628;48.654;8.932;2023-06-05T13:44:33;4.38;;;2.30;;
7173;SDS011;3628;48.654;8.932;2023-06-05T13:46:59;3.63;;;1.90;;
7173;SDS011;3628;48.654;8.932;2023-06-05T13:49:28;2.28;;;2.08;;
7173;SDS011;3628;48.654;8.932;2023-06-05T13:51:56;4.03;;;2.25;;
7173;SDS011;3628;48.654;8.932;2023-06-05T13:54:22;3.85;;;2.20;;
7173;SDS011;3628;48.654;8.932;2023-06-05T13:56:47;3.67;;;2.17;;
7173;SDS011;3628;48.654;8.932;2023-06-05T13:59:13;1.90;;;1.80;;
7173;SDS011;3628;48.654;8.932;2023-06-05T14:01:39;4.50;;;1.98;;
7173;SDS011;3628;48.654;8.932;2023-06-05T14:04:04;3.20;;;1.95;;
7173;SDS011;3628;48.654;8.932;2023-06-05T14:06:30;3.92;;;1.95;;
7173;SDS011;3628;48.654;8.932;2023-06-05T14:08:56;2.28;;;2.08;;
7173;SDS011;3628;48.654;8.932;2023-06-05T14:11:21;2.58;;;2.22;;
7173;SDS011;3628;48.654;8.932;2023-06-05T14:13:47;2.47;;;2.20;;
7173;SDS011;3628;48.654;8.932;2023-06-05T14:16:13;2.60;;;1.95;;
7173;SDS011;3628;48.654;8.932;2023-06-05T14:18:38;4.35;;;2.20;;
7173;SDS011;3628;48.654;8.932;2023-06-05T14:21:04;6.25;;;2.35;;
7173;SDS011;3628;48.654;8.932;2023-06-05T14:23:30;2.25;;;2.05;;
7173;SDS011;3628;48.654;8.932;2023-06-05T14:25:55;2.97;;;2.05;;
7173;SDS011;3628;48.654;8.932;2023-06-05T14:28:21;2.78;;;2.10;;
7173;SDS011;3628;48.654;8.932;2023-06-05T14:30:47;3.65;;;2.30;;
7173;SDS011;3628;48.654;8.932;2023-06-05T14:33:13;10.55;;;2.63;;
7173;SDS011;3628;48.654;8.932;2023-06-05T14:35:39;4.10;;;2.35;;
7173;SDS011;3628;48.654;8.932;2023-06-05T14:38:05;4.78;;;2.05;;
7173;SDS011;3628;48.654;8.932;2023-06-05T14:40:30;2.33;;;2.13;;
7173;SDS011;3628;48.654;8.932;2023-06-05T14:42:57;3.22;;;2.20;;
7173;SDS011;3628;48.654;8.932;2023-06-05T14:45:23;2.15;;;1.95;;
7173;SDS011;3628;48.654;8.932;2023-06-05T14:47:49;2.45;;;2.10;;
7173;SDS011;3628;48.654;8.932;2023-06-05T14:50:15;2.90;;;2.40;;
7173;SDS011;3628;48.654;8.932;2023-06-05T14:52:41;3.47;;;2.40;;
7173;SDS011;3628;48.654;8.932;2023-06-05T14:55:07;3.28;;;1.95;;
7173;SDS011;3628;48.654;8.932;2023-06-05T14:57:33;4.90;;;2.40;;
7173;SDS011;3628;48.654;8.932;2023-06-05T14:59:59;3.60;;;2.40;;
7173;SDS011;3628;48.654;8.932;2023-06-05T15:02:24;4.65;;;2.10;;
7173;SDS011;3628;48.654;8.932;2023-06-05T15:04:51;4.22;;;2.10;;
7173;SDS011;3628;48.654;8.932;2023-06-05T15:07:20;3.40;;;2.30;;
7173;SDS011;3628;48.654;8.932;2023-06-05T15:09:45;4.93;;;2.20;;
7173;SDS011;3628;48.654;8.932;2023-06-05T15:12:11;4.55;;;2.03;;
7173;SDS011;3628;48.654;8.932;2023-06-05T15:14:37;4.30;;;2.30;;
7173;SDS011;3628;48.654;8.932;2023-06-05T15:17:03;3.20;;;2.17;;
7173;SDS011;3628;48.654;8.932;2023-06-05T15:19:28;2.88;;;2.50;;
7173;SDS011;3628;48.654;8.932;2023-06-05T15:21:54;2.72;;;2.17;;
7173;SDS011;3628;48.654;8.932;2023-06-05T15:24:20;2.70;;;2.15;;
7173;SDS011;3628;48.654;8.932;2023-06-05T15:26:45;3.78;;;2.28;;
7173;SDS011;3628;48.654;8.932;2023-06-05T15:29:11;3.28;;;2.17;;
7173;SDS011;3628;48.654;8.932;2023-06-05T15:31:36;2.45;;;2.25;;
7173;SDS011;3628;48.654;8.932;2023-06-05T15:34:02;1.98;;;1.73;;
7173;SDS011;3628;48.654;8.932;2023-06-05T15:36:27;1.73;;;1.63;;
7173;SDS011;3628;48.654;8.932;2023-06-05T15:38:53;2.33;;;1.90;;
7173;SDS011;3628;48.654;8.932;2023-06-05T15:41:19;2.35;;;1.98;;
7173;SDS011;3628;48.654;8.932;2023-06-05T15:43:46;2.60;;;2.25;;
7173;SDS011;3628;48.654;8.932;2023-06-05T15:46:11;2.47;;;2.20;;
7173;SDS011;3628;48.654;8.932;2023-06-05T15:48:37;4.05;;;2.40;;
7173;SDS011;3628;48.654;8.932;2023-06-05T15:51:03;3.47;;;2.28;;
7173;SDS011;3628;48.654;8.932;2023-06-05T15:53:29;2.20;;;2.00;;
7173;SDS011;3628;48.654;8.932;2023-06-05T15:55:55;3.85;;;2.00;;